X  Close Metar Aviation Weather Data     KSEA Seattle Tacoma International Airport
Temperature
37°F Temperature
36°F Dewpoint
93% Humidity



Wind
10 MPH
16 KM/H
4 M/S
9 KTS



170°
South
Current Conditions

Light Rain, Mist Light Rain, Mist
Pressure 1005.72 (hPa) - 29.7 (inHg)
Visibility 5 (mile) - 8 (km)
Airport
Airport-code KSEA

Location: Seattle Tacoma International Airport
Distance: 14 (mi)

Metar:
KSEA 250353Z 17009KT 5SM -RA BR OVC006 03/02 A2970 RMK AO2 SLP066 P0001 T00330022

Time: 01-24-2021 19:53 PST